Time;durP1;ratioP1;P1;durP2;ratioP2;P2;SDS_P1;SDS_P2;PMS_P1;PMS_P2;Temp;Humidity;BMP_temperature;BMP_pressure;BME280_temperature;BME280_humidity;BME280_pressure;Samples;Min_cycle;Max_cycle;Signal;HPM_P1;HPM_P2
2023/04/07 00:01:03;;;;;;;4.68;3.22;;;5.60;97.70;;;;;;2094680;28;20179;-61
2023/04/07 00:02:08;;;;;;;5.80;2.85;;;5.60;97.80;;;;;;2094004;28;20713;-60
2023/04/07 00:03:15;;;;;;;4.22;3.03;;;5.50;97.80;;;;;;2094005;28;20187;-59
2023/04/07 00:04:20;;;;;;;4.45;3.17;;;5.60;97.70;;;;;;2093954;28;20660;-60
2023/04/07 00:05:26;;;;;;;5.35;3.10;;;5.60;97.60;;;;;;2094514;28;20196;-60
2023/04/07 00:06:32;;;;;;;5.93;2.75;;;5.60;97.80;;;;;;2094534;28;20575;-60
2023/04/07 00:07:37;;;;;;;5.28;3.17;;;5.60;97.80;;;;;;2094219;28;20217;-61
2023/04/07 00:08:43;;;;;;;3.88;2.90;;;5.60;97.60;;;;;;2093845;28;20585;-61
2023/04/07 00:09:49;;;;;;;6.07;3.03;;;5.50;97.90;;;;;;2094775;28;20218;-61
2023/04/07 00:10:55;;;;;;;4.22;3.22;;;5.50;98.50;;;;;;2094465;28;20252;-61
2023/04/07 00:12:01;;;;;;;5.03;2.95;;;5.50;98.70;;;;;;2094152;28;20195;-61
2023/04/07 00:13:04;;;;;;;3.70;2.90;;;5.50;98.60;;;;;;2094448;28;20186;-61
2023/04/07 00:14:09;;;;;;;5.35;2.88;;;5.50;98.00;;;;;;2094549;28;20701;-60
2023/04/07 00:15:14;;;;;;;4.82;2.90;;;5.40;97.90;;;;;;2097328;28;20192;-60
2023/04/07 00:16:20;;;;;;;4.82;3.58;;;5.40;98.20;;;;;;2094479;28;20183;-59
2023/04/07 00:17:26;;;;;;;4.97;3.10;;;5.40;98.30;;;;;;2094616;28;20271;-59
2023/04/07 00:18:32;;;;;;;3.95;3.00;;;5.50;98.40;;;;;;2094501;28;20215;-60
2023/04/07 00:19:37;;;;;;;5.03;3.20;;;5.50;98.30;;;;;;2094560;28;20534;-61
2023/04/07 00:20:43;;;;;;;3.60;2.90;;;5.50;98.40;;;;;;2094457;28;20192;-61
2023/04/07 00:21:49;;;;;;;4.93;2.88;;;5.50;98.30;;;;;;2094149;28;20215;-61
2023/04/07 00:22:54;;;;;;;5.68;3.10;;;5.50;98.40;;;;;;2094400;28;20195;-61
2023/04/07 00:24:00;;;;;;;5.32;3.42;;;5.40;98.40;;;;;;2097830;28;20219;-60
2023/04/07 00:25:05;;;;;;;5.25;3.55;;;5.50;98.30;;;;;;2097885;28;20210;-60
2023/04/07 00:26:09;;;;;;;6.60;3.35;;;5.40;98.20;;;;;;2095838;28;20579;-60
2023/04/07 00:27:15;;;;;;;5.07;3.60;;;5.40;98.20;;;;;;2096006;28;20265;-60
2023/04/07 00:28:21;;;;;;;4.40;3.22;;;5.40;98.30;;;;;;2094992;28;20199;-61
2023/04/07 00:29:27;;;;;;;4.10;3.22;;;5.50;98.30;;;;;;2094988;28;20730;-60
2023/04/07 00:30:32;;;;;;;5.97;3.58;;;5.40;98.10;;;;;;2094965;28;20194;-59
2023/04/07 00:31:38;;;;;;;6.32;3.55;;;5.30;98.40;;;;;;2093843;28;20180;-61
2023/04/07 00:32:44;;;;;;;3.80;3.17;;;5.20;98.80;;;;;;2094845;28;20184;-61
2023/04/07 00:33:50;;;;;;;4.88;3.13;;;5.20;98.70;;;;;;2094053;28;20225;-62
2023/04/07 00:34:55;;;;;;;4.85;3.20;;;5.30;98.20;;;;;;2088007;28;20212;-61
2023/04/07 00:36:01;;;;;;;3.78;2.67;;;5.30;97.80;;;;;;2096031;28;20246;-61
2023/04/07 00:37:05;;;;;;;4.40;2.80;;;5.30;97.60;;;;;;2094407;28;20187;-60
2023/04/07 00:38:09;;;;;;;3.47;2.47;;;5.30;97.40;;;;;;2094594;28;20649;-61
2023/04/07 00:39:15;;;;;;;3.35;2.63;;;5.30;97.30;;;;;;2094587;28;20195;-61
2023/04/07 00:40:21;;;;;;;4.93;2.88;;;5.30;97.30;;;;;;2094535;28;20593;-59
2023/04/07 00:41:26;;;;;;;4.50;3.30;;;5.30;97.50;;;;;;2092867;28;20193;-60
2023/04/07 00:42:33;;;;;;;3.53;3.00;;;5.30;97.90;;;;;;2094074;28;20263;-61
2023/04/07 00:43:39;;;;;;;4.97;3.35;;;5.30;98.10;;;;;;2094437;28;20243;-61
2023/04/07 00:44:45;;;;;;;5.43;3.55;;;5.30;98.50;;;;;;2094337;28;20203;-60
2023/04/07 00:45:52;;;;;;;5.63;3.67;;;5.20;98.70;;;;;;2094337;28;20195;-61
2023/04/07 00:46:58;;;;;;;6.88;3.70;;;5.20;99.00;;;;;;2094338;28;20232;-61
2023/04/07 00:48:04;;;;;;;7.30;4.70;;;5.20;99.40;;;;;;2094310;28;20195;-61
2023/04/07 00:49:09;;;;;;;7.70;3.70;;;5.20;99.40;;;;;;2094418;28;20281;-60
2023/04/07 00:50:15;;;;;;;5.85;3.47;;;5.20;99.10;;;;;;2094399;28;20230;-61
2023/04/07 00:51:21;;;;;;;6.90;3.78;;;5.30;98.80;;;;;;2092958;28;20191;-61
2023/04/07 00:52:28;;;;;;;4.70;3.58;;;5.30;98.60;;;;;;2093616;28;20664;-62
2023/04/07 00:53:34;;;;;;;5.32;3.50;;;5.30;98.80;;;;;;2094390;28;20180;-62
2023/04/07 00:54:42;;;;;;;8.07;3.75;;;5.30;98.80;;;;;;2094131;28;20251;-61
2023/04/07 00:55:47;;;;;;;6.18;4.03;;;5.30;98.70;;;;;;2094359;28;20188;-61
2023/04/07 00:56:53;;;;;;;4.13;3.00;;;5.30;98.70;;;;;;2094243;28;20282;-59
2023/04/07 00:57:59;;;;;;;4.70;3.28;;;5.30;98.70;;;;;;2094069;28;20188;-60
2023/04/07 00:59:04;;;;;;;4.80;3.22;;;5.30;98.80;;;;;;2097774;28;20548;-60
2023/04/07 01:00:10;;;;;;;3.70;3.10;;;5.30;98.60;;;;;;2094059;28;20229;-61
2023/04/07 01:01:22;;;;;;;4.35;3.33;;;5.30;98.50;;;;;;2093965;28;20270;-60
2023/04/07 01:02:42;;;;;;;3.30;2.70;;;5.40;98.30;;;;;;2092329;28;20176;-61
2023/04/07 01:03:53;;;;;;;5.85;3.33;;;5.30;98.40;;;;;;2090680;28;20179;-60
2023/04/07 01:05:17;;;;;;;5.40;3.25;;;5.40;97.70;;;;;;2085116;28;20314;-61
2023/04/07 01:06:30;;;;;;;4.13;2.83;;;5.40;97.50;;;;;;2091685;28;20672;-62
2023/04/07 01:07:52;;;;;;;3.97;2.85;;;5.40;97.30;;;;;;2078407;28;20228;-61
2023/04/07 01:09:14;;;;;;;4.95;3.20;;;5.40;96.20;;;;;;2092634;28;20248;-61
2023/04/07 01:10:34;;;;;;;6.60;3.17;;;5.30;96.30;;;;;;2097094;28;20183;-61
2023/04/07 01:11:43;;;;;;;4.88;2.92;;;5.30;96.50;;;;;;2094006;28;20183;-61
2023/04/07 01:13:01;;;;;;;5.53;3.40;;;5.30;96.70;;;;;;2091004;28;20180;-61
2023/04/07 01:14:05;;;;;;;4.55;3.28;;;5.30;97.20;;;;;;2087861;28;20195;-61
2023/04/07 01:15:11;;;;;;;5.60;2.90;;;5.30;97.50;;;;;;2085872;28;20204;-59
2023/04/07 01:16:30;;;;;;;3.88;2.88;;;5.30;97.20;;;;;;2093838;28;20194;-61
2023/04/07 01:17:42;;;;;;;5.53;3.03;;;5.30;96.80;;;;;;2093332;28;20665;-60
2023/04/07 01:18:55;;;;;;;3.67;2.83;;;5.30;96.70;;;;;;2087387;28;20192;-60
2023/04/07 01:20:07;;;;;;;5.72;3.20;;;5.30;96.90;;;;;;2093619;28;20194;-60
2023/04/07 01:21:15;;;;;;;4.50;3.25;;;5.40;97.10;;;;;;2093782;28;20230;-61
2023/04/07 01:22:28;;;;;;;4.20;3.40;;;5.40;97.10;;;;;;2094232;28;20191;-60
2023/04/07 01:24:33;;;;;;;3.03;2.40;;;5.40;97.60;;;;;;2093394;28;20287;-59
2023/04/07 01:26:28;;;;;;;5.20;2.72;;;5.40;97.40;;;;;;2068294;28;20200;-61
2023/04/07 01:28:04;;;;;;;5.97;3.05;;;5.30;97.60;;;;;;2069565;28;20657;-61
2023/04/07 01:29:26;;;;;;;4.57;3.70;;;5.30;97.20;;;;;;2072497;28;20197;-63
2023/04/07 01:30:37;;;;;;;4.30;3.15;;;5.30;97.70;;;;;;2075576;28;20173;-61
2023/04/07 01:31:44;;;;;;;3.55;3.00;;;5.30;97.00;;;;;;2098782;28;20214;-61
2023/04/07 01:32:52;;;;;;;3.75;2.92;;;5.30;96.90;;;;;;2093398;28;20184;-62
2023/04/07 01:34:00;;;;;;;3.45;2.63;;;5.40;96.70;;;;;;2093364;28;20281;-61
2023/04/07 01:35:08;;;;;;;5.18;3.20;;;5.40;96.60;;;;;;2093780;28;20219;-60
2023/04/07 01:36:15;;;;;;;4.70;2.97;;;5.50;96.40;;;;;;2097719;28;20524;-61
2023/04/07 01:37:21;;;;;;;5.30;3.13;;;5.50;96.10;;;;;;2093244;28;20571;-61
2023/04/07 01:38:28;;;;;;;4.50;3.10;;;5.50;95.90;;;;;;2093061;28;20184;-61
2023/04/07 01:39:35;;;;;;;4.75;3.17;;;5.40;96.00;;;;;;2093193;28;20605;-61
2023/04/07 01:40:42;;;;;;;4.07;2.90;;;5.50;96.10;;;;;;2093314;28;20180;-61
2023/04/07 01:41:51;;;;;;;7.20;3.40;;;5.60;96.00;;;;;;2092361;28;20193;-60
2023/04/07 01:42:58;;;;;;;4.80;3.13;;;5.60;95.90;;;;;;2093621;28;20187;-61
2023/04/07 01:44:06;;;;;;;6.00;3.70;;;5.60;95.90;;;;;;2093629;28;20652;-61
2023/04/07 01:45:10;;;;;;;5.03;3.00;;;5.60;95.90;;;;;;2093983;28;20208;-61
2023/04/07 01:46:16;;;;;;;4.75;3.03;;;5.50;95.90;;;;;;2093645;28;20203;-61
2023/04/07 01:47:22;;;;;;;3.42;3.03;;;5.50;96.10;;;;;;2093812;28;20183;-61
2023/04/07 01:48:28;;;;;;;3.90;3.25;;;5.60;96.00;;;;;;2093606;28;20199;-61
2023/04/07 01:49:35;;;;;;;4.38;3.17;;;5.50;95.90;;;;;;2093252;28;20230;-60
2023/04/07 01:50:43;;;;;;;5.40;3.47;;;5.60;96.00;;;;;;2086626;28;20189;-61
2023/04/07 01:51:50;;;;;;;4.32;3.03;;;5.60;96.00;;;;;;2092140;28;20184;-60
2023/04/07 01:52:56;;;;;;;5.03;3.20;;;5.60;95.80;;;;;;2093592;28;20238;-61
2023/04/07 01:54:04;;;;;;;4.97;3.15;;;5.50;96.20;;;;;;2093259;28;20214;-61
2023/04/07 01:55:09;;;;;;;3.55;2.90;;;5.60;96.10;;;;;;2086183;28;20714;-61
2023/04/07 01:56:15;;;;;;;7.22;3.33;;;5.60;95.80;;;;;;2093370;28;20188;-61
2023/04/07 01:57:21;;;;;;;4.93;3.00;;;5.70;95.90;;;;;;2093799;28;20179;-59
2023/04/07 01:58:27;;;;;;;3.75;2.78;;;5.70;95.70;;;;;;2093706;28;20696;-60
2023/04/07 01:59:32;;;;;;;4.05;2.65;;;5.60;95.80;;;;;;2093884;28;20194;-61
2023/04/07 02:00:38;;;;;;;3.83;2.75;;;5.70;95.90;;;;;;2093875;28;20968;-61
2023/04/07 02:01:44;;;;;;;5.30;2.95;;;5.60;95.50;;;;;;2092541;28;20901;-62
2023/04/07 02:02:57;;;;;;;5.20;3.17;;;5.60;95.50;;;;;;2093252;28;20188;-61
2023/04/07 02:04:11;;;;;;;4.50;3.05;;;5.50;95.80;;;;;;2093050;28;20186;-61
2023/04/07 02:05:19;;;;;;;4.13;2.85;;;5.50;96.10;;;;;;2093048;28;20223;-60
2023/04/07 02:06:33;;;;;;;5.55;3.22;;;5.50;96.20;;;;;;2093071;28;20187;-60
2023/04/07 02:07:48;;;;;;;4.60;3.13;;;5.30;96.30;;;;;;2092903;28;20317;-60
2023/04/07 02:09:00;;;;;;;4.20;2.80;;;5.40;96.70;;;;;;2093061;28;20678;-61
2023/04/07 02:10:08;;;;;;;5.63;3.63;;;5.40;96.90;;;;;;2093181;28;20211;-61
2023/04/07 02:11:11;;;;;;;6.75;3.08;;;5.50;96.80;;;;;;2093107;28;20187;-60
2023/04/07 02:12:18;;;;;;;5.78;3.20;;;5.50;97.00;;;;;;2092868;28;20266;-61
2023/04/07 02:13:25;;;;;;;3.83;2.88;;;5.50;96.70;;;;;;2092813;28;20200;-60
2023/04/07 02:14:31;;;;;;;5.43;3.50;;;5.50;96.80;;;;;;2093706;28;20180;-61
2023/04/07 02:15:40;;;;;;;3.92;2.90;;;5.50;96.50;;;;;;2093659;28;20188;-60
2023/04/07 02:16:47;;;;;;;4.68;2.85;;;5.60;96.50;;;;;;2093045;28;20223;-61
2023/04/07 02:17:55;;;;;;;3.92;3.20;;;5.60;96.40;;;;;;2092960;28;20183;-62
2023/04/07 02:19:02;;;;;;;5.00;2.92;;;5.70;96.10;;;;;;2093698;28;20184;-61
2023/04/07 02:20:07;;;;;;;4.03;2.75;;;5.70;95.90;;;;;;2093554;28;20204;-61
2023/04/07 02:21:10;;;;;;;4.65;3.35;;;5.80;95.60;;;;;;2093613;28;20205;-61
2023/04/07 02:22:16;;;;;;;5.20;3.40;;;5.70;95.60;;;;;;2095431;28;20180;-61
2023/04/07 02:23:22;;;;;;;4.43;3.33;;;5.70;95.90;;;;;;2092183;28;20186;-62
2023/04/07 02:24:28;;;;;;;5.50;3.55;;;5.50;95.90;;;;;;2095327;28;20191;-61
2023/04/07 02:25:36;;;;;;;5.43;3.13;;;5.60;96.20;;;;;;2095522;28;20707;-61
2023/04/07 02:26:42;;;;;;;5.35;3.00;;;5.70;96.00;;;;;;2094093;28;20214;-61
2023/04/07 02:27:48;;;;;;;4.43;2.70;;;5.60;96.20;;;;;;2093518;28;20188;-61
2023/04/07 02:28:54;;;;;;;5.72;3.10;;;5.60;96.10;;;;;;2093960;28;20691;-61
2023/04/07 02:30:00;;;;;;;4.05;2.92;;;5.70;96.00;;;;;;2093558;28;20227;-60
2023/04/07 02:31:04;;;;;;;5.20;2.88;;;5.70;95.90;;;;;;2091415;28;20649;-62
2023/04/07 02:32:09;;;;;;;4.07;3.03;;;5.70;95.80;;;;;;2091357;28;20199;-62
2023/04/07 02:33:15;;;;;;;4.30;3.20;;;5.70;95.60;;;;;;2093714;28;20191;-60
2023/04/07 02:34:21;;;;;;;5.30;3.55;;;5.60;95.70;;;;;;2093852;28;20208;-62
2023/04/07 02:35:27;;;;;;;4.30;3.10;;;5.60;95.80;;;;;;2093404;28;20653;-61
2023/04/07 02:36:32;;;;;;;3.40;2.75;;;6.50;96.10;;;;;;2093857;28;20180;-62
2023/04/07 02:37:38;;;;;;;6.03;3.22;;;5.70;95.90;;;;;;2093300;28;20702;-62
2023/04/07 02:38:44;;;;;;;3.47;2.83;;;5.60;96.00;;;;;;2093623;28;20183;-61
2023/04/07 02:39:50;;;;;;;5.60;2.85;;;5.70;96.10;;;;;;2096633;28;20207;-61
2023/04/07 02:40:57;;;;;;;5.00;3.03;;;5.70;95.70;;;;;;2088872;28;20278;-61
2023/04/07 02:42:03;;;;;;;4.78;2.88;;;5.70;95.80;;;;;;2092853;28;20206;-61
2023/04/07 02:43:04;;;;;;;4.00;2.83;;;5.70;95.80;;;;;;2093525;28;20187;-60
2023/04/07 02:44:09;;;;;;;6.70;2.83;;;5.80;95.60;;;;;;2093466;28;20190;-60
2023/04/07 02:45:15;;;;;;;3.75;3.00;;;5.80;95.50;;;;;;2093740;28;20207;-61
2023/04/07 02:46:21;;;;;;;5.93;3.45;;;5.70;95.60;;;;;;2093613;28;20302;-62
2023/04/07 02:47:27;;;;;;;3.95;3.00;;;5.70;95.60;;;;;;2093608;28;20194;-61
2023/04/07 02:48:32;;;;;;;3.95;2.72;;;5.80;95.40;;;;;;2093412;28;20275;-61
2023/04/07 02:49:38;;;;;;;3.97;3.28;;;5.80;95.50;;;;;;2093637;28;20277;-61
2023/04/07 02:50:44;;;;;;;5.15;3.05;;;5.70;95.60;;;;;;2093578;28;20184;-60
2023/04/07 02:51:49;;;;;;;3.88;2.50;;;5.70;95.70;;;;;;2092913;28;20829;-61
2023/04/07 02:52:55;;;;;;;4.90;3.35;;;5.80;95.70;;;;;;2093469;28;20221;-60
2023/04/07 02:54:01;;;;;;;4.60;2.90;;;5.80;95.50;;;;;;2093610;28;20184;-60
2023/04/07 02:55:06;;;;;;;3.95;3.03;;;5.80;95.50;;;;;;2093307;28;20206;-60
2023/04/07 02:56:10;;;;;;;4.15;2.95;;;5.80;95.60;;;;;;2093628;28;20262;-59
2023/04/07 02:57:15;;;;;;;4.55;3.10;;;5.80;95.60;;;;;;2093518;28;20200;-59
2023/04/07 02:58:21;;;;;;;4.75;3.20;;;5.80;95.80;;;;;;2093372;28;20301;-60
2023/04/07 02:59:27;;;;;;;4.50;3.10;;;5.80;95.90;;;;;;2093607;28;20176;-61
2023/04/07 03:00:33;;;;;;;5.82;2.72;;;5.80;96.00;;;;;;2093458;28;20171;-61
2023/04/07 03:01:39;;;;;;;6.47;3.83;;;5.80;95.80;;;;;;2092882;28;20603;-64
2023/04/07 03:02:45;;;;;;;4.32;2.70;;;5.80;95.90;;;;;;2094348;28;20183;-61
2023/04/07 03:03:50;;;;;;;5.47;3.25;;;5.80;96.10;;;;;;2097278;28;20188;-60
2023/04/07 03:04:56;;;;;;;3.50;2.80;;;5.70;96.10;;;;;;2093151;28;20319;-60
2023/04/07 03:06:02;;;;;;;4.55;3.30;;;5.70;96.30;;;;;;2093503;28;20183;-60
2023/04/07 03:07:04;;;;;;;3.80;3.17;;;5.60;96.40;;;;;;2093295;28;20222;-60
2023/04/07 03:08:10;;;;;;;4.80;3.13;;;5.60;96.60;;;;;;2093632;28;20262;-61
2023/04/07 03:09:16;;;;;;;4.90;3.30;;;5.60;96.60;;;;;;2093342;28;20195;-60
2023/04/07 03:10:22;;;;;;;7.55;3.80;;;5.60;96.60;;;;;;2093519;28;20682;-61
2023/04/07 03:11:27;;;;;;;5.07;2.83;;;5.70;96.50;;;;;;2092548;28;20549;-61
2023/04/07 03:12:33;;;;;;;5.30;2.80;;;5.80;96.20;;;;;;2093486;28;20211;-61
2023/04/07 03:13:39;;;;;;;4.05;3.15;;;5.80;95.90;;;;;;2093414;28;20191;-59
2023/04/07 03:14:45;;;;;;;3.70;2.92;;;5.90;95.90;;;;;;2093645;28;20203;-61
2023/04/07 03:15:50;;;;;;;5.22;2.88;;;5.80;95.90;;;;;;2093305;28;20183;-60
2023/04/07 03:16:56;;;;;;;4.55;3.20;;;5.80;96.30;;;;;;2093444;28;20648;-60
2023/04/07 03:18:02;;;;;;;3.58;2.90;;;5.70;96.70;;;;;;2093371;28;20195;-60
2023/04/07 03:19:04;;;;;;;3.40;2.70;;;5.70;96.80;;;;;;2093460;28;20271;-60
2023/04/07 03:20:10;;;;;;;4.22;3.10;;;5.70;96.80;;;;;;2093535;28;20238;-61
2023/04/07 03:21:15;;;;;;;4.25;3.10;;;5.70;96.80;;;;;;2093135;28;20567;-60
2023/04/07 03:22:21;;;;;;;5.15;2.83;;;5.80;96.80;;;;;;2093622;28;20257;-63
2023/04/07 03:23:28;;;;;;;5.30;2.90;;;5.80;96.70;;;;;;2093235;28;20198;-62
2023/04/07 03:24:34;;;;;;;5.72;3.10;;;5.90;96.70;;;;;;2093434;28;20273;-62
2023/04/07 03:25:40;;;;;;;5.75;3.08;;;5.90;96.70;;;;;;2093642;28;20705;-62
2023/04/07 03:26:46;;;;;;;3.70;2.50;;;5.80;97.00;;;;;;2095017;28;20232;-62
2023/04/07 03:27:52;;;;;;;3.83;2.72;;;5.90;96.80;;;;;;2094912;28;20211;-61
2023/04/07 03:28:58;;;;;;;5.20;2.85;;;5.80;96.80;;;;;;2095115;28;20187;-62
2023/04/07 03:30:04;;;;;;;4.82;3.20;;;5.80;96.90;;;;;;2094876;28;20226;-62
2023/04/07 03:31:09;;;;;;;3.78;2.75;;;5.80;97.60;;;;;;2094997;28;20179;-62
2023/04/07 03:32:15;;;;;;;3.88;3.17;;;5.70;97.50;;;;;;2094397;28;20618;-62
2023/04/07 03:33:21;;;;;;;4.28;2.97;;;5.60;97.70;;;;;;2094991;28;20180;-61
2023/04/07 03:34:27;;;;;;;4.13;2.72;;;5.50;97.80;;;;;;2094638;28;20196;-60
2023/04/07 03:35:32;;;;;;;4.07;2.85;;;5.50;98.00;;;;;;2095142;28;20283;-61
2023/04/07 03:36:38;;;;;;;3.45;2.72;;;5.50;97.90;;;;;;2094881;28;20188;-61
2023/04/07 03:37:44;;;;;;;3.45;2.50;;;5.50;97.80;;;;;;2094914;28;20180;-60
2023/04/07 03:38:49;;;;;;;3.22;2.50;;;5.50;97.60;;;;;;2094933;28;20188;-62
2023/04/07 03:39:55;;;;;;;3.22;2.65;;;5.50;97.60;;;;;;2095021;28;20216;-61
2023/04/07 03:41:01;;;;;;;4.20;2.80;;;5.50;97.50;;;;;;2094783;28;20579;-62
2023/04/07 03:42:04;;;;;;;3.40;2.53;;;5.50;97.50;;;;;;2093960;28;20194;-62
2023/04/07 03:43:12;;;;;;;3.92;2.80;;;5.40;97.30;;;;;;2095473;28;20194;-62
2023/04/07 03:44:18;;;;;;;4.88;2.80;;;5.40;97.30;;;;;;2096680;28;20192;-62
2023/04/07 03:45:24;;;;;;;4.75;3.17;;;5.40;97.10;;;;;;2094931;28;20226;-62
2023/04/07 03:46:30;;;;;;;3.38;2.60;;;5.30;97.10;;;;;;2094569;28;20610;-62
2023/04/07 03:47:36;;;;;;;3.97;2.97;;;5.30;97.00;;;;;;2094961;28;20281;-61
2023/04/07 03:48:41;;;;;;;4.45;3.08;;;5.30;97.10;;;;;;2094714;28;20278;-61
2023/04/07 03:49:47;;;;;;;3.38;2.55;;;5.20;97.20;;;;;;2094845;28;20199;-61
2023/04/07 03:50:53;;;;;;;5.43;2.65;;;5.10;97.50;;;;;;2094722;28;20199;-61
2023/04/07 03:51:58;;;;;;;4.35;2.83;;;5.00;97.80;;;;;;2094345;28;20188;-62
2023/04/07 03:53:04;;;;;;;4.63;3.10;;;4.90;98.00;;;;;;2094533;28;20178;-62
2023/04/07 03:54:09;;;;;;;4.57;2.95;;;4.90;98.20;;;;;;2094681;28;20628;-60
2023/04/07 03:55:15;;;;;;;4.88;3.08;;;4.80;98.10;;;;;;2094570;28;20198;-61
2023/04/07 03:56:21;;;;;;;4.70;3.20;;;4.80;98.30;;;;;;2094714;28;20262;-61
2023/04/07 03:57:27;;;;;;;4.80;2.95;;;4.80;98.40;;;;;;2094768;28;20270;-62
2023/04/07 03:58:32;;;;;;;4.55;3.78;;;4.70;98.70;;;;;;2094959;28;20183;-62
2023/04/07 03:59:38;;;;;;;4.13;3.20;;;4.60;98.90;;;;;;2094595;28;20222;-62
2023/04/07 04:00:44;;;;;;;4.30;3.15;;;4.60;99.60;;;;;;2094654;28;20195;-60
2023/04/07 04:01:50;;;;;;;8.10;3.22;;;4.40;99.90;;;;;;2094085;28;20190;-62
2023/04/07 04:02:55;;;;;;;5.72;3.50;;;4.30;99.90;;;;;;2094821;28;20195;-62
2023/04/07 04:04:02;;;;;;;4.65;2.95;;;4.30;99.90;;;;;;2094896;28;20278;-61
2023/04/07 04:05:05;;;;;;;5.07;3.45;;;4.20;99.90;;;;;;2094487;28;20287;-62
2023/04/07 04:06:09;;;;;;;4.43;3.08;;;4.20;99.90;;;;;;2094605;28;20271;-62
2023/04/07 04:07:15;;;;;;;4.50;2.90;;;4.20;99.90;;;;;;2094645;28;20870;-62
2023/04/07 04:08:21;;;;;;;5.28;3.50;;;4.30;99.90;;;;;;2094859;28;20278;-62
2023/04/07 04:09:26;;;;;;;4.80;3.17;;;3.90;99.90;;;;;;2094437;28;20205;-61
2023/04/07 04:10:32;;;;;;;4.70;3.40;;;4.20;99.90;;;;;;2094600;28;20483;-61
2023/04/07 04:11:38;;;;;;;5.25;3.30;;;4.20;99.90;;;;;;2093880;28;20194;-60
2023/04/07 04:12:46;;;;;;;5.63;3.25;;;4.20;99.90;;;;;;2094689;28;20708;-62
2023/04/07 04:13:51;;;;;;;5.20;3.38;;;4.00;99.90;;;;;;2093930;28;20200;-61
2023/04/07 04:14:57;;;;;;;5.50;3.10;;;4.10;99.90;;;;;;2094165;28;20230;-61
2023/04/07 04:16:04;;;;;;;6.38;3.95;;;4.00;99.90;;;;;;2094614;28;20186;-62
2023/04/07 04:17:04;;;;;;;6.70;3.17;;;4.00;99.90;;;;;;2094782;28;20268;-62
2023/04/07 04:18:09;;;;;;;3.45;2.67;;;4.10;99.90;;;;;;2094545;28;20190;-61
2023/04/07 04:19:15;;;;;;;4.15;3.25;;;4.20;99.90;;;;;;2094802;28;20196;-63
2023/04/07 04:20:21;;;;;;;4.20;2.97;;;4.20;99.90;;;;;;2095706;28;20232;-62
2023/04/07 04:21:26;;;;;;;6.80;3.20;;;4.20;99.90;;;;;;2098444;28;20261;-62
2023/04/07 04:22:32;;;;;;;4.60;3.22;;;4.10;99.90;;;;;;2097315;28;20180;-61
2023/04/07 04:23:38;;;;;;;5.07;2.88;;;4.10;99.90;;;;;;2096008;28;20759;-62
2023/04/07 04:24:45;;;;;;;5.00;2.90;;;4.10;99.90;;;;;;2095927;28;20215;-61
2023/04/07 04:25:51;;;;;;;4.28;3.38;;;4.10;99.90;;;;;;2095528;28;20213;-61
2023/04/07 04:26:57;;;;;;;3.95;2.72;;;4.00;99.90;;;;;;2097720;28;20265;-62
2023/04/07 04:28:02;;;;;;;4.78;2.85;;;4.00;99.90;;;;;;2095833;28;20228;-61
2023/04/07 04:29:05;;;;;;;5.05;2.80;;;4.10;99.90;;;;;;2096459;28;20245;-61
2023/04/07 04:30:10;;;;;;;8.82;3.50;;;4.10;99.90;;;;;;2094592;28;20294;-61
2023/04/07 04:31:15;;;;;;;4.60;3.25;;;4.20;99.90;;;;;;2094519;28;20189;-61
2023/04/07 04:32:21;;;;;;;4.25;2.95;;;4.20;99.90;;;;;;2094817;28;20295;-61
2023/04/07 04:33:27;;;;;;;5.22;3.28;;;4.20;99.90;;;;;;2094591;28;20638;-60
2023/04/07 04:34:33;;;;;;;3.80;3.03;;;4.10;99.90;;;;;;2093726;28;20191;-61
2023/04/07 04:35:38;;;;;;;3.53;2.53;;;4.10;99.90;;;;;;2094181;28;20285;-61
2023/04/07 04:36:44;;;;;;;4.78;3.08;;;4.10;99.90;;;;;;2092693;28;20217;-60
2023/04/07 04:37:50;;;;;;;3.40;2.80;;;4.10;99.90;;;;;;2091627;28;20588;-59
2023/04/07 04:38:56;;;;;;;4.57;2.60;;;4.00;99.90;;;;;;2094468;28;20187;-60
2023/04/07 04:40:01;;;;;;;3.80;2.65;;;4.00;99.90;;;;;;2094625;28;20198;-60
2023/04/07 04:41:05;;;;;;;5.90;2.97;;;4.00;99.90;;;;;;2094360;28;20203;-59
2023/04/07 04:42:10;;;;;;;3.92;2.63;;;4.00;99.90;;;;;;2093271;28;20222;-60
2023/04/07 04:43:15;;;;;;;4.47;2.70;;;4.00;99.90;;;;;;2093294;28;20289;-60
2023/04/07 04:44:21;;;;;;;7.90;2.97;;;4.00;99.90;;;;;;2094316;28;20671;-60
2023/04/07 04:45:27;;;;;;;4.05;2.88;;;4.00;99.90;;;;;;2094211;28;20187;-60
2023/04/07 04:46:32;;;;;;;3.83;2.67;;;4.00;99.90;;;;;;2094422;28;20186;-59
2023/04/07 04:47:38;;;;;;;3.42;2.78;;;4.10;99.90;;;;;;2094214;28;20243;-60
2023/04/07 04:48:44;;;;;;;3.97;2.88;;;4.10;99.90;;;;;;2094581;28;20190;-60
2023/04/07 04:49:49;;;;;;;3.65;2.60;;;4.00;99.90;;;;;;2092020;28;20215;-61
2023/04/07 04:50:55;;;;;;;4.38;2.40;;;4.00;99.90;;;;;;2094443;28;20676;-60
2023/04/07 04:52:01;;;;;;;4.82;2.55;;;4.10;99.90;;;;;;2093655;28;20182;-60
2023/04/07 04:53:04;;;;;;;4.40;2.20;;;4.10;99.90;;;;;;2093909;28;20677;-59
2023/04/07 04:54:09;;;;;;;3.25;2.42;;;4.00;99.90;;;;;;2094020;28;20181;-60
2023/04/07 04:55:15;;;;;;;4.38;2.60;;;4.00;99.90;;;;;;2093945;28;20256;-60
2023/04/07 04:56:21;;;;;;;5.30;2.70;;;4.10;99.90;;;;;;2094241;28;20210;-60
2023/04/07 04:57:26;;;;;;;5.88;2.40;;;4.20;99.90;;;;;;2094062;28;20191;-59
2023/04/07 04:58:33;;;;;;;2.70;2.00;;;4.20;99.90;;;;;;2094100;28;20189;-61
2023/04/07 04:59:39;;;;;;;3.35;2.47;;;4.20;99.90;;;;;;2093976;28;20184;-59
2023/04/07 05:00:45;;;;;;;3.78;2.20;;;4.20;99.90;;;;;;2094219;28;20193;-60
2023/04/07 05:01:51;;;;;;;4.68;2.65;;;4.20;99.90;;;;;;2093211;28;20209;-60
2023/04/07 05:02:56;;;;;;;3.30;2.40;;;4.20;99.90;;;;;;2094190;28;20179;-60
2023/04/07 05:04:02;;;;;;;3.20;2.75;;;4.20;99.90;;;;;;2093916;28;20202;-60
2023/04/07 05:05:05;;;;;;;2.63;2.33;;;4.20;99.90;;;;;;2093748;28;20215;-61
2023/04/07 05:06:09;;;;;;;2.83;2.00;;;4.20;99.90;;;;;;2093904;28;20195;-61
2023/04/07 05:07:15;;;;;;;2.90;2.17;;;4.20;99.90;;;;;;2093992;28;20675;-61
2023/04/07 05:08:20;;;;;;;2.78;2.40;;;4.20;99.90;;;;;;2093631;28;20203;-60
2023/04/07 05:09:26;;;;;;;2.92;2.13;;;4.10;99.90;;;;;;2093935;28;20269;-59
2023/04/07 05:10:32;;;;;;;2.75;2.00;;;4.00;99.90;;;;;;2096534;28;20201;-61
2023/04/07 05:11:39;;;;;;;4.88;2.67;;;3.90;99.90;;;;;;2093241;28;20187;-60
2023/04/07 05:12:45;;;;;;;4.32;2.50;;;3.90;99.90;;;;;;2093981;28;20197;-60
2023/04/07 05:13:51;;;;;;;5.82;4.15;;;3.90;99.90;;;;;;2093872;28;20190;-61
2023/04/07 05:14:57;;;;;;;3.50;2.42;;;3.90;99.90;;;;;;2093954;28;20342;-60
2023/04/07 05:16:03;;;;;;;4.32;2.20;;;4.00;99.90;;;;;;2093861;28;20633;-61
2023/04/07 05:17:04;;;;;;;4.60;2.90;;;4.20;99.90;;;;;;2094064;28;20195;-61
2023/04/07 05:18:09;;;;;;;3.22;2.58;;;4.20;99.90;;;;;;2093830;28;20179;-60
2023/04/07 05:19:15;;;;;;;2.85;2.03;;;4.30;99.90;;;;;;2094112;28;20197;-60
2023/04/07 05:20:21;;;;;;;5.43;2.38;;;4.30;99.90;;;;;;2093676;28;20322;-58
2023/04/07 05:21:27;;;;;;;3.30;2.45;;;4.40;99.90;;;;;;2093247;28;20184;-61
2023/04/07 05:22:32;;;;;;;2.83;2.30;;;4.50;99.90;;;;;;2093815;28;20183;-61
2023/04/07 05:23:38;;;;;;;6.18;2.70;;;4.50;99.90;;;;;;2093874;28;20198;-61
2023/04/07 05:24:44;;;;;;;3.88;2.45;;;4.60;99.90;;;;;;2093628;28;20207;-61
2023/04/07 05:25:49;;;;;;;3.50;2.35;;;4.60;99.90;;;;;;2093868;28;20273;-61
2023/04/07 05:26:55;;;;;;;4.65;2.97;;;4.50;99.90;;;;;;2093880;28;20207;-60
2023/04/07 05:28:01;;;;;;;3.92;2.50;;;4.40;99.90;;;;;;2093949;28;20199;-59
2023/04/07 05:29:04;;;;;;;3.50;2.40;;;4.30;99.90;;;;;;2095453;28;20187;-62
2023/04/07 05:30:10;;;;;;;3.85;2.67;;;4.30;99.90;;;;;;2093707;28;20268;-61
2023/04/07 05:31:16;;;;;;;3.65;2.55;;;4.30;99.90;;;;;;2093476;28;20241;-61
2023/04/07 05:32:21;;;;;;;4.57;2.60;;;4.40;99.90;;;;;;2093949;28;20266;-60
2023/04/07 05:33:27;;;;;;;4.50;2.80;;;4.40;99.90;;;;;;2093824;28;20786;-62
2023/04/07 05:34:33;;;;;;;5.18;2.75;;;4.50;99.90;;;;;;2093652;28;20182;-62
2023/04/07 05:35:38;;;;;;;5.10;2.95;;;4.60;99.90;;;;;;2093849;28;20270;-61
2023/04/07 05:36:44;;;;;;;3.33;2.55;;;4.60;99.90;;;;;;2093491;28;20218;-62
2023/04/07 05:37:50;;;;;;;3.90;2.97;;;4.70;99.90;;;;;;2093863;28;20660;-61
2023/04/07 05:38:56;;;;;;;3.15;2.65;;;4.70;99.90;;;;;;2093570;28;20193;-62
2023/04/07 05:40:02;;;;;;;3.05;2.45;;;4.70;99.90;;;;;;2093678;28;20198;-61
2023/04/07 05:41:05;;;;;;;4.50;2.75;;;4.80;99.90;;;;;;2093468;28;20179;-61
2023/04/07 05:42:09;;;;;;;5.03;2.58;;;4.80;99.90;;;;;;2093137;28;20184;-60
2023/04/07 05:43:15;;;;;;;3.78;2.75;;;4.90;99.90;;;;;;2093614;28;20203;-62
2023/04/07 05:44:21;;;;;;;4.68;2.63;;;4.90;99.90;;;;;;2093792;28;20369;-62
2023/04/07 05:45:26;;;;;;;3.50;2.80;;;5.00;99.70;;;;;;2093547;28;20612;-61
2023/04/07 05:46:32;;;;;;;5.75;3.00;;;5.00;99.90;;;;;;2093747;28;20202;-61
2023/04/07 05:47:38;;;;;;;6.53;3.53;;;5.00;99.30;;;;;;2093621;28;20202;-61
2023/04/07 05:48:44;;;;;;;4.15;3.20;;;4.90;99.30;;;;;;2093386;28;20253;-60
2023/04/07 05:49:49;;;;;;;3.45;2.95;;;5.00;99.30;;;;;;2093491;28;20336;-60
2023/04/07 05:50:55;;;;;;;5.32;4.22;;;5.00;99.10;;;;;;2093546;28;20662;-62
2023/04/07 05:52:04;;;;;;;3.95;2.88;;;5.10;99.00;;;;;;2095081;28;20183;-62
2023/04/07 05:53:09;;;;;;;3.42;2.67;;;5.10;98.90;;;;;;2093459;28;20207;-62